Edinboro, Pennsylvania
Current Conditions -  °F | °C
As of 1:51 PM on Thursday 23 Oct 2014 (Local Time) from KERI Reporting Station
Clear Clear  
Wind Chill: 57°   Ceiling: Unl
Heat Index: 57°   Visibility: 10mi
Dew Point: 43°   Wind: 3mph
Humidity: 59%   Direction: NA
Pressure: 30.14"   Gusts: NA
Location:  41.88°N, 80.13°W
Report Text: KERI 231751Z VRB03KT 10SM CLR 14/06 A3014 RMK AO2 SLP207 T01390061 10139 20094 58009
Loading
Personal Weather Stations






























Interactive Weather Map
Tropical Storm Tracking
New forecast layout! Learn more

10-Day Weather Forecast

Advertisements
Track Severe Weather on mobile